Time;durP1;ratioP1;P1;durP2;ratioP2;P2;SDS_P1;SDS_P2;PMS_P1;PMS_P2;Temp;Humidity;BMP_temperature;BMP_pressure;BME280_temperature;BME280_humidity;BME280_pressure;Samples;Min_cycle;Max_cycle;Signal;HPM_P1;HPM_P2
2022/04/22 00:03:44;;;;;;;7.68;5.05;;;;;;;10.77;69.66;100404.00;10211360;29;20110;-78
2022/04/22 00:08:45;;;;;;;9.63;5.68;;;;;;;10.51;69.96;100375.78;10211853;29;20496;-78
2022/04/22 00:13:46;;;;;;;7.82;5.20;;;;;;;11.00;70.55;100506.97;10194673;29;20039;-78
2022/04/22 00:18:46;;;;;;;10.05;5.78;;;;;;;10.43;71.53;100447.50;10212805;29;20098;-78
2022/04/22 00:23:49;;;;;;;13.85;5.97;;;;;;;10.51;72.34;100489.19;10212971;29;20072;-78
2022/04/22 00:28:50;;;;;;;15.27;7.00;;;;;;;10.44;72.58;100512.91;10212213;29;20110;-77
2022/04/22 00:33:51;;;;;;;8.90;6.28;;;;;;;10.30;72.87;100518.00;10219975;29;20074;-78
2022/04/22 00:38:51;;;;;;;7.93;5.60;;;;;;;9.33;72.82;100416.59;10202859;29;20052;-78
2022/04/22 00:43:53;;;;;;;11.13;5.30;;;;;;;9.75;73.53;100540.47;10219786;29;20777;-82
2022/04/22 00:48:54;;;;;;;8.38;4.60;;;;;;;9.04;73.72;100477.91;10219272;29;20586;-79
2022/04/22 00:53:55;;;;;;;6.38;4.13;;;;;;;8.83;74.28;100478.25;10219231;29;20151;-78
2022/04/22 00:58:57;;;;;;;8.55;3.97;;;;;;;9.02;75.09;100546.94;10219687;29;20083;-78
2022/04/22 01:14:41;;;;;;;7.07;4.40;;;;;;;8.87;76.06;100538.69;10217922;29;20436;-79
2022/04/22 01:19:42;;;;;;;8.02;4.10;;;;;;;8.19;75.86;100427.97;10217781;29;20047;-79
2022/04/22 01:24:43;;;;;;;5.80;3.42;;;;;;;8.75;76.77;100531.97;10218486;29;20055;-79
2022/04/22 01:29:44;;;;;;;5.35;3.50;;;;;;;8.68;76.94;100523.81;10201262;29;20063;-78
2022/04/22 01:34:45;;;;;;;6.80;3.45;;;;;;;8.34;76.73;100491.81;10217262;29;20103;-78
2022/04/22 01:39:46;;;;;;;6.65;3.45;;;;;;;8.50;77.15;100570.63;10217922;29;20090;-79
2022/04/22 01:44:47;;;;;;;7.57;3.80;;;;;;;7.67;77.41;100443.63;10215908;29;20048;-78
2022/04/22 01:49:47;;;;;;;5.32;3.67;;;;;;;8.51;78.03;100584.69;10217093;29;20157;-78
2022/04/22 01:54:52;;;;;;;5.72;4.00;;;;;;;8.21;78.22;100541.63;10216606;29;20040;-78
2022/04/22 01:59:55;;;;;;;9.23;3.78;;;;;;;8.41;78.41;100585.59;10216320;29;20050;-78
2022/04/22 02:04:56;;;;;;;6.82;4.18;;;;;;;7.65;78.75;100506.38;10216193;29;20047;-78
2022/04/22 02:09:56;;;;;;;7.55;4.18;;;;;;;8.26;79.77;100633.84;10216476;29;20050;-78
2022/04/22 02:14:57;;;;;;;5.95;4.10;;;;;;;7.94;79.73;100571.56;10216243;29;20067;-79
2022/04/22 02:19:58;;;;;;;6.90;4.18;;;;;;;7.35;79.69;100482.84;10214277;29;20142;-78
2022/04/22 02:24:59;;;;;;;10.65;4.35;;;;;;;6.97;79.38;100416.78;10215459;29;20051;-77
2022/04/22 02:30:00;;;;;;;9.23;4.35;;;;;;;7.84;79.50;100554.88;10215191;29;20051;-77
2022/04/22 02:35:02;;;;;;;32.83;5.50;;;;;;;7.60;79.27;100503.38;10215396;29;20044;-78
2022/04/22 02:40:03;;;;;;;9.38;4.43;;;;;;;7.71;78.75;100521.66;10216013;29;20555;-78
2022/04/22 02:50:24;;;;;;;11.88;5.28;;;;;;;9.38;77.28;100677.63;10213509;29;20385;-78
2022/04/22 02:55:24;;;;;;;9.23;3.92;;;;;;;9.77;75.98;100645.44;10205124;29;20044;-80
2022/04/22 03:00:25;;;;;;;7.07;4.18;;;;;;;10.52;74.66;100669.63;10214129;29;20040;-78
2022/04/22 03:05:26;;;;;;;6.38;3.80;;;;;;;11.32;72.48;100668.34;10214761;29;20043;-80
2022/04/22 03:10:27;;;;;;;11.13;4.35;;;;;;;12.22;70.58;100681.63;10214196;29;20048;-77
2022/04/22 03:15:29;;;;;;;9.63;3.35;;;;;;;12.42;67.50;100580.81;10214526;29;20407;-77
2022/04/22 03:20:30;;;;;;;6.93;3.45;;;;;;;13.24;65.46;100546.41;10252851;28;20522;-79
2022/04/22 03:25:31;;;;;;;4.93;3.00;;;;;;;14.39;63.51;100640.38;10252955;29;20072;-79
2022/04/22 03:30:34;;;;;;;5.57;3.20;;;;;;;14.64;61.67;100644.63;10235862;29;20047;-80
2022/04/22 03:35:35;;;;;;;4.33;2.90;;;;;;;14.51;60.32;100589.97;10253545;29;20122;-79
2022/04/22 03:40:35;;;;;;;5.53;2.92;;;;;;;15.09;58.54;100643.47;10236869;29;20075;-83
2022/04/22 03:45:36;;;;;;;7.32;2.67;;;;;;;15.80;57.22;100658.78;10235479;29;20405;-77
2022/04/22 03:50:38;;;;;;;6.35;2.78;;;;;;;16.44;55.44;100688.88;10252520;29;20415;-76
2022/04/22 03:55:43;;;;;;;6.25;2.75;;;;;;;15.55;52.86;100610.13;10252499;29;20050;-77
2022/04/22 04:00:49;;;;;;;3.45;2.22;;;;;;;16.13;53.04;100685.81;10251591;29;20043;-74
2022/04/22 04:05:51;;;;;;;8.95;2.53;;;;;;;15.87;53.86;100700.66;10250744;28;20069;-77
2022/04/22 04:16:11;;;;;;;4.38;2.40;;;;;;;16.62;52.03;100691.03;10251880;29;20043;-75
2022/04/22 04:26:31;;;;;;;9.10;2.22;;;;;;;15.44;51.54;100533.84;10251327;29;20047;-82
2022/04/22 04:31:33;;;;;;;4.57;1.48;;;;;;;15.44;50.69;100517.78;10251731;29;20134;-82
2022/04/22 04:36:33;;;;;;;3.10;1.27;;;;;;;16.64;49.81;100712.28;10250541;29;20122;-77
2022/04/22 04:41:34;;;;;;;2.90;1.50;;;;;;;15.63;49.21;100601.94;10250002;29;20182;-81
2022/04/22 04:46:35;;;;;;;7.38;1.85;;;;;;;15.39;48.60;100601.34;10251609;29;20133;-78
2022/04/22 04:51:35;;;;;;;7.65;1.58;;;;;;;15.43;48.33;100656.16;10251287;29;20054;-82
2022/04/22 04:56:36;;;;;;;4.57;1.35;;;;;;;15.52;48.63;100721.09;10249936;29;20028;-85
2022/04/22 05:01:37;;;;;;;5.28;1.58;;;;;;;15.08;49.18;100719.44;10250043;29;20039;-82
2022/04/22 05:06:38;;;;;;;6.93;1.60;;;;;;;14.64;49.66;100663.34;10251118;29;20039;-79
2022/04/22 05:11:39;;;;;;;4.13;1.40;;;;;;;14.01;49.32;100562.19;10250120;29;20051;-84
2022/04/22 05:16:39;;;;;;;7.03;1.65;;;;;;;14.82;49.39;100677.13;10253565;28;20587;-80
2022/04/22 05:21:40;;;;;;;4.90;1.30;;;;;;;15.06;49.05;100724.94;10258358;28;20118;-82
2022/04/22 05:26:41;;;;;;;3.72;1.42;;;;;;;15.16;49.07;100715.78;10258316;29;20047;-80
2022/04/22 05:37:01;;;;;;;5.22;1.60;;;;;;;15.32;48.56;100733.47;10258527;29;20074;-85
2022/04/22 05:42:02;;;;;;;6.10;1.30;;;;;;;15.41;47.79;100724.31;10257885;29;20106;-83
2022/04/22 05:47:04;;;;;;;4.47;1.35;;;;;;;15.69;47.61;100737.78;10257279;29;20131;-83
2022/04/22 05:52:05;;;;;;;2.78;1.23;;;;;;;14.89;46.93;100619.19;10257183;29;20090;-82
2022/04/22 05:57:05;;;;;;;9.90;1.58;;;;;;;15.91;47.23;100765.38;10257154;29;20118;-81
2022/04/22 06:02:06;;;;;;;6.40;1.27;;;;;;;15.66;47.24;100690.75;10256721;29;20178;-82
2022/04/22 06:07:07;;;;;;;3.00;1.40;;;;;;;16.10;47.00;100762.06;10256377;29;20043;-83
2022/04/22 06:12:08;;;;;;;5.68;1.70;;;;;;;16.27;47.19;100757.22;10256715;29;20399;-82
2022/04/22 06:17:09;;;;;;;4.43;1.17;;;;;;;16.47;45.99;100745.81;10256412;29;20043;-82
2022/04/22 06:22:10;;;;;;;3.13;1.20;;;;;;;16.76;45.46;100769.75;10255226;28;20058;-83
2022/04/22 06:27:11;;;;;;;4.93;1.10;;;;;;;16.10;45.43;100643.31;10255044;28;20102;-84
2022/04/22 06:32:12;;;;;;;3.58;1.20;;;;;;;16.86;45.02;100719.22;10255061;29;20043;-84
2022/04/22 06:37:13;;;;;;;3.53;1.20;;;;;;;16.74;44.39;100728.84;10255507;29;20047;-81
2022/04/22 06:47:34;;;;;;;3.55;1.13;;;;;;;17.14;42.94;100736.25;10254688;29;20046;-81
2022/04/22 06:52:35;;;;;;;2.60;1.15;;;;;;;17.14;42.47;100742.47;10253461;29;20049;-81
2022/04/22 06:57:39;;;;;;;3.20;1.00;;;;;;;16.71;41.78;100666.72;10254281;29;20483;-81
2022/04/22 07:02:40;;;;;;;3.13;1.30;;;;;;;17.41;41.98;100751.44;10253738;29;20507;-82
2022/04/22 07:07:41;;;;;;;2.38;1.00;;;;;;;17.20;41.87;100645.03;10254462;29;20051;-81
2022/04/22 07:12:42;;;;;;;2.80;1.73;;;;;;;17.49;41.89;100657.22;10254445;29;20051;-83
2022/04/22 07:17:43;;;;;;;4.07;1.40;;;;;;;17.84;42.59;100748.41;10253903;29;20399;-82
2022/04/22 07:22:44;;;;;;;2.25;1.00;;;;;;;17.39;42.66;100615.69;10253645;29;20059;-80
2022/04/22 07:27:47;;;;;;;6.20;1.55;;;;;;;18.23;41.51;100692.97;10253360;29;20500;-78
2022/04/22 07:32:49;;;;;;;3.38;1.00;;;;;;;18.12;40.67;100694.44;10253839;29;20078;-81
2022/04/22 07:37:52;;;;;;;2.85;0.95;;;;;;;18.13;39.47;100731.06;10253685;28;20054;-83
2022/04/22 07:48:13;;;;;;;2.88;0.90;;;;;;;18.14;39.69;100683.47;10252093;29;20518;-84
2022/04/22 07:53:18;;;;;;;3.38;1.20;;;;;;;18.39;39.73;100719.41;10252014;29;20050;-80
2022/04/22 07:58:19;;;;;;;2.45;0.90;;;;;;;18.80;39.79;100701.31;10252424;29;20503;-83
2022/04/22 08:03:19;;;;;;;3.33;0.90;;;;;;;17.65;39.66;100488.59;10252274;29;20117;-81
2022/04/22 08:08:20;;;;;;;2.70;1.10;;;;;;;18.22;39.87;100598.03;10252063;29;20411;-81
2022/04/22 08:13:21;;;;;;;3.42;1.50;;;;;;;18.89;39.77;100690.09;10251883;29;20152;-83
2022/04/22 08:18:22;;;;;;;8.88;1.60;;;;;;;18.05;39.19;100639.84;10251652;29;20047;-85
2022/04/22 08:23:22;;;;;;;2.83;1.05;;;;;;;18.07;39.45;100694.25;10252504;29;20059;-81
2022/04/22 08:28:23;;;;;;;5.72;1.27;;;;;;;18.64;39.31;100689.97;10251146;29;20047;-82
2022/04/22 08:33:26;;;;;;;3.75;1.10;;;;;;;19.11;39.02;100689.78;10251635;29;20050;-85
2022/04/22 08:38:26;;;;;;;3.83;1.00;;;;;;;19.49;38.33;100684.34;10251076;29;20081;-81
2022/04/22 08:43:29;;;;;;;1.70;0.90;;;;;;;18.29;38.44;100659.03;10251981;29;20077;-82
2022/04/22 08:53:53;;;;;;;4.00;1.45;;;;;;;19.22;38.22;100618.25;10258322;28;20046;-83
2022/04/22 08:58:54;;;;;;;;;;;;;;;20.37;37.75;100678.00;10259451;29;20058;-81
2022/04/22 09:03:55;;;;;;;3.08;1.75;;;;;;;20.14;37.14;100661.66;10258149;29;19927;-82
2022/04/22 09:08:57;;;;;;;3.40;1.10;;;;;;;19.79;36.36;100584.00;10259256;29;20499;-82
2022/04/22 09:14:00;;;;;;;2.33;0.98;;;;;;;20.80;35.57;100682.50;10259227;29;20053;-81
2022/04/22 09:19:03;;;;;;;4.45;1.20;;;;;;;20.07;35.92;100675.19;10258346;29;20039;-86
2022/04/22 09:24:13;;;;;;;2.38;1.30;;;;;;;19.20;36.96;100663.41;10258499;28;20065;-81
2022/04/22 09:29:14;;;;;;;1.90;1.00;;;;;;;18.88;38.20;100605.00;10257327;29;20070;-82
2022/04/22 09:34:15;;;;;;;4.80;1.30;;;;;;;19.49;37.16;100618.88;10257696;29;20094;-83
2022/04/22 09:44:40;;;;;;;3.00;1.20;;;;;;;18.87;37.32;100583.69;10257251;29;20054;-81
2022/04/22 09:49:45;;;;;;;4.55;1.10;;;;;;;20.11;37.05;100659.41;10257098;29;20423;-82
2022/04/22 09:54:56;;;;;;;7.90;1.08;;;;;;;20.17;35.22;100558.72;10256291;29;20400;-81
2022/04/22 09:59:56;;;;;;;2.63;1.48;;;;;;;21.19;35.37;100639.78;10256885;29;20137;-83
2022/04/22 10:04:58;;;;;;;3.05;1.30;;;;;;;20.82;34.65;100577.81;10254701;28;20129;-84
2022/04/22 10:10:02;;;;;;;3.05;1.20;;;;;;;21.35;34.17;100635.59;10256409;29;20051;-81
2022/04/22 10:15:08;;;;;;;9.23;1.13;;;;;;;21.14;33.96;100628.84;10256465;29;20102;-81
2022/04/22 10:20:10;;;;;;;5.22;1.35;;;;;;;21.10;35.04;100647.41;10255631;29;20179;-84
2022/04/22 10:25:11;;;;;;;8.18;1.23;;;;;;;20.32;35.72;100641.94;10255773;28;20058;-81
2022/04/22 10:30:14;;;;;;;2.75;1.25;;;;;;;19.56;36.08;100536.94;10256159;29;20502;-84
2022/04/22 10:35:15;;;;;;;2.55;1.20;;;;;;;19.78;36.79;100653.28;10255678;29;20035;-81
2022/04/22 10:40:22;;;;;;;4.25;1.40;;;;;;;19.69;37.01;100651.09;10255742;29;20118;-82
2022/04/22 10:50:57;;;;;;;13.35;1.73;;;;;;;20.01;35.93;100624.84;10255173;29;20050;-80
2022/04/22 10:56:25;;;;;;;2.50;1.30;;;;;;;20.01;36.58;100647.25;10255618;29;20039;-84
2022/04/22 11:01:31;;;;;;;2.50;1.00;;;;;;;20.15;36.08;100601.25;10254588;29;20047;-84
2022/04/22 11:06:34;;;;;;;2.83;1.00;;;;;;;20.87;35.70;100633.81;10254600;29;20078;-85
2022/04/22 11:11:42;;;;;;;3.67;1.42;;;;;;;20.74;35.92;100641.03;10253635;29;20122;-81
2022/04/22 11:16:43;;;;;;;5.03;1.50;;;;;;;20.05;36.80;100626.06;10253574;28;20069;-80
2022/04/22 11:21:47;;;;;;;4.13;1.55;;;;;;;19.66;37.17;100627.28;10253515;28;20086;-81
2022/04/22 11:26:48;;;;;;;4.32;1.30;;;;;;;19.25;37.72;100637.50;10253562;29;20135;-82
2022/04/22 11:31:56;;;;;;;2.17;1.10;;;;;;;19.11;38.26;100604.44;10253009;29;20451;-83
2022/04/22 11:36:57;;;;;;;3.40;1.50;;;;;;;19.11;38.12;100614.38;10251372;29;20068;-78
2022/04/22 11:42:00;;;;;;;2.55;1.10;;;;;;;18.98;38.90;100626.06;10249152;29;20043;-84
2022/04/22 11:47:01;;;;;;;3.42;1.50;;;;;;;18.79;38.44;100563.25;10244546;29;20047;-83
2022/04/22 11:52:02;;;;;;;4.95;1.50;;;;;;;19.03;38.55;100606.59;10247837;29;20043;-84
2022/04/22 11:57:03;;;;;;;4.82;1.50;;;;;;;19.13;38.51;100650.81;10250831;29;20035;-82
2022/04/22 12:12:48;;;;;;;12.23;1.98;;;;;;;18.39;39.26;100538.38;10251385;29;20537;-83
2022/04/22 12:17:49;;;;;;;3.08;1.40;;;;;;;18.25;39.44;100530.38;10252607;29;20065;-84
2022/04/22 12:22:51;;;;;;;2.55;1.33;;;;;;;18.00;39.66;100518.69;10251999;28;20131;-83
2022/04/22 12:28:08;;;;;;;3.40;1.30;;;;;;;18.63;39.99;100623.72;10250601;29;20101;-85
2022/04/22 12:33:19;;;;;;;6.45;1.40;;;;;;;17.98;40.17;100518.09;10252803;29;20055;-84
2022/04/22 12:38:23;;;;;;;3.72;1.40;;;;;;;18.21;39.64;100531.84;10251174;29;20047;-86
2022/04/22 12:43:31;;;;;;;32.35;2.17;;;;;;;18.59;39.54;100568.69;10251860;29;20054;-83
2022/04/22 12:54:03;;;;;;;2.33;1.10;;;;;;;18.06;39.09;100515.16;10250992;29;20031;-81
2022/04/22 12:59:07;;;;;;;;;;;;;;;18.86;39.15;100630.50;10250950;29;20086;-83
2022/04/22 13:04:21;;;;;;;4.03;1.60;;;;;;;18.20;40.49;100532.88;10250554;29;19981;-85
2022/04/22 13:09:22;;;;;;;3.33;1.52;;;;;;;18.89;39.55;100633.56;10251553;29;20489;-84
2022/04/22 13:14:23;;;;;;;4.68;1.60;;;;;;;18.21;39.61;100520.25;10250564;29;20074;-83
2022/04/22 13:19:24;;;;;;;6.82;1.73;;;;;;;18.77;39.53;100634.47;10250565;29;20077;-84
2022/04/22 13:24:24;;;;;;;4.75;1.65;;;;;;;18.54;39.67;100624.19;10251811;28;20055;-84
2022/04/22 13:29:25;;;;;;;5.80;1.77;;;;;;;18.50;39.90;100639.94;10250378;29;20051;-84
2022/04/22 13:34:26;;;;;;;3.30;1.45;;;;;;;18.22;40.09;100595.34;10250187;29;20618;-83
2022/04/22 13:39:27;;;;;;;5.30;1.80;;;;;;;18.29;40.36;100648.28;10255601;28;20117;-83
2022/04/22 13:55:08;;;;;;;5.53;1.30;;;;;;;17.37;40.86;100566.75;10217218;29;20051;-83
2022/04/22 14:00:10;;;;;;;6.10;1.52;;;;;;;17.34;41.06;100528.50;10258018;29;20047;-85
2022/04/22 14:05:11;;;;;;;6.38;1.98;;;;;;;18.13;40.99;100634.25;10256467;29;20569;-85
2022/04/22 14:10:12;;;;;;;3.83;1.40;;;;;;;18.03;40.90;100645.44;10256120;29;20051;-85
2022/04/22 14:15:13;;;;;;;3.05;1.02;;;;;;;17.88;41.01;100649.38;10256823;29;20050;-85
2022/04/22 14:20:14;;;;;;;6.57;1.60;;;;;;;17.72;41.30;100656.81;10255895;28;20063;-85
2022/04/22 14:25:16;;;;;;;3.60;1.20;;;;;;;17.47;41.51;100631.59;10254680;28;20047;-83
2022/04/22 14:30:17;;;;;;;9.05;1.55;;;;;;;17.54;41.74;100664.66;10255985;29;20635;-85
2022/04/22 14:35:18;;;;;;;4.03;1.50;;;;;;;17.02;42.16;100589.25;10255837;29;20130;-86
2022/04/22 14:40:19;;;;;;;3.85;1.40;;;;;;;17.32;42.35;100654.13;10257409;29;20058;-83
2022/04/22 14:45:20;;;;;;;4.28;1.45;;;;;;;17.20;42.61;100650.38;10257223;29;20105;-85
2022/04/22 14:50:22;;;;;;;6.55;1.60;;;;;;;17.17;42.59;100663.38;10232352;29;20151;-85
2022/04/22 14:55:23;;;;;;;3.47;1.50;;;;;;;16.60;42.71;100576.91;10253349;29;20523;-84
2022/04/22 15:00:23;;;;;;;5.10;1.85;;;;;;;16.85;42.91;100650.50;10252718;29;20078;-84
2022/04/22 15:05:25;;;;;;;6.35;1.70;;;;;;;16.99;43.01;100669.31;10247787;29;20050;-83
2022/04/22 15:10:26;;;;;;;2.97;1.40;;;;;;;16.14;43.26;100543.53;10215022;29;20532;-85
2022/04/22 15:15:27;;;;;;;3.72;1.45;;;;;;;16.92;43.58;100665.78;10249898;29;20091;-87
2022/04/22 15:25:47;;;;;;;6.72;1.63;;;;;;;16.69;44.00;100658.03;10246965;29;20039;-86
2022/04/22 15:31:06;;;;;;;3.50;1.30;;;;;;;16.77;44.78;100664.09;10252893;29;20051;-85
2022/04/22 15:36:08;;;;;;;8.52;1.58;;;;;;;16.71;44.77;100680.94;10253095;29;20047;-82
2022/04/22 15:41:14;;;;;;;5.75;1.60;;;;;;;16.33;45.10;100625.09;10253754;29;20038;-86
2022/04/22 15:46:15;;;;;;;5.30;1.52;;;;;;;16.30;45.21;100662.19;10252142;29;20051;-85
2022/04/22 15:51:17;;;;;;;13.43;1.85;;;;;;;16.01;45.71;100660.56;10257294;29;20043;-86
2022/04/22 15:56:20;;;;;;;3.40;1.52;;;;;;;15.75;46.14;100656.66;10252420;29;20055;-85
2022/04/22 16:01:21;;;;;;;7.50;1.60;;;;;;;15.77;46.54;100680.59;10254279;28;20046;-82
2022/04/22 16:06:21;;;;;;;3.25;1.38;;;;;;;14.92;46.98;100597.41;10253390;29;20129;-85
2022/04/22 16:16:44;;;;;;;18.52;1.73;;;;;;;15.33;48.00;100709.19;10251425;29;20042;-85
2022/04/22 16:21:45;;;;;;;4.70;1.60;;;;;;;14.40;48.30;100582.41;10253971;29;20523;-84
2022/04/22 16:26:46;;;;;;;5.53;1.30;;;;;;;15.05;48.77;100707.25;10251449;29;20054;-86
2022/04/22 16:31:47;;;;;;;3.40;1.40;;;;;;;14.15;49.44;100574.69;10251571;29;20467;-85
2022/04/22 16:36:48;;;;;;;5.28;1.50;;;;;;;14.90;49.87;100705.59;10251205;29;20135;-86
2022/04/22 16:41:49;;;;;;;5.18;1.52;;;;;;;14.52;50.20;100676.34;10251441;29;20051;-84
2022/04/22 16:46:50;;;;;;;7.43;2.00;;;;;;;14.71;50.50;100705.16;10251295;29;20046;-85
2022/04/22 16:51:51;;;;;;;10.90;1.80;;;;;;;14.59;50.86;100709.34;10253048;29;20039;-81
2022/04/22 16:56:52;;;;;;;7.32;1.90;;;;;;;14.39;51.10;100698.34;10251451;29;20047;-83
2022/04/22 17:01:54;;;;;;;4.63;1.60;;;;;;;14.33;51.52;100734.66;10243762;29;20040;-85
2022/04/22 17:07:01;;;;;;;6.88;1.80;;;;;;;14.34;52.71;100738.16;10249413;29;20043;-85
2022/04/22 17:12:04;;;;;;;2.55;1.45;;;;;;;13.91;51.87;100676.47;10249512;28;20027;-84
2022/04/22 17:22:41;;;;;;;3.08;1.55;;;;;;;13.99;52.67;100695.06;10257203;28;20043;-82
2022/04/22 17:27:46;;;;;;;4.47;1.73;;;;;;;14.06;53.02;100722.75;10257700;29;20062;-84
2022/04/22 17:32:48;;;;;;;7.10;4.07;;;;;;;14.22;52.81;100744.97;10257707;29;20039;-84
2022/04/22 17:37:49;;;;;;;4.40;2.03;;;;;;;13.98;52.99;100703.28;10258025;29;20074;-84
2022/04/22 17:42:51;;;;;;;12.65;3.38;;;;;;;13.31;52.97;100599.91;10238615;29;20142;-82
2022/04/22 17:47:52;;;;;;;16.55;6.82;;;;;;;14.22;53.31;100736.94;10255483;29;20411;-79
2022/04/22 17:52:54;;;;;;;295.48;123.13;;;;;;;13.48;53.52;100626.28;10253628;29;20047;-82
2022/04/22 17:57:55;;;;;;;402.10;170.57;;;;;;;14.15;53.58;100742.19;10256366;29;20050;-81
2022/04/22 18:02:56;;;;;;;498.02;237.10;;;;;;;13.83;54.06;100698.72;10254958;29;20492;-81
2022/04/22 18:07:58;;;;;;;126.93;49.67;;;;;;;13.72;54.09;100684.97;10249254;29;20085;-83
2022/04/22 18:13:00;;;;;;;26.02;12.45;;;;;;;13.21;53.54;100595.63;10256385;29;20575;-85
2022/04/22 18:18:02;;;;;;;14.43;6.15;;;;;;;13.72;54.27;100690.31;10252418;29;20494;-85
2022/04/22 18:23:05;;;;;;;5.28;3.20;;;;;;;13.11;54.58;100607.56;10250762;28;20427;-84
2022/04/22 18:28:07;;;;;;;4.85;2.25;;;;;;;13.15;54.82;100606.19;10252435;29;20503;-80
2022/04/22 18:33:08;;;;;;;8.93;2.25;;;;;;;12.76;55.50;100561.78;10214432;29;20055;-80
2022/04/22 18:38:09;;;;;;;8.05;2.30;;;;;;;13.60;55.34;100712.09;10253973;29;20110;-78
2022/04/22 18:43:11;;;;;;;6.90;2.90;;;;;;;13.62;55.35;100720.75;10253718;29;20521;-82
2022/04/22 18:48:12;;;;;;;3.55;1.80;;;;;;;13.52;55.84;100728.19;10252891;29;20047;-83
2022/04/22 18:53:15;;;;;;;5.68;2.08;;;;;;;12.20;56.60;100529.97;10252178;29;20122;-82
2022/04/22 18:58:17;;;;;;;4.23;2.27;;;;;;;13.50;56.53;100732.88;10249547;29;20031;-81
2022/04/22 19:03:18;;;;;;;3.78;2.17;;;;;;;13.55;56.66;100726.97;10251119;29;20039;-83
2022/04/22 19:08:20;;;;;;;4.55;2.20;;;;;;;13.28;56.97;100674.97;10251740;29;20584;-82
2022/04/22 19:13:22;;;;;;;4.30;2.20;;;;;;;12.11;57.16;100485.72;10253391;29;20130;-82
2022/04/22 19:18:24;;;;;;;5.03;2.13;;;;;;;13.28;57.55;100689.13;10251069;29;20043;-83
2022/04/22 19:23:24;;;;;;;3.13;2.30;;;;;;;12.54;57.72;100568.75;10236730;29;20090;-80
2022/04/22 19:28:25;;;;;;;6.20;2.45;;;;;;;13.26;58.62;100707.19;10214324;29;20070;-83
2022/04/22 19:33:27;;;;;;;5.95;3.30;;;;;;;13.08;59.08;100720.75;10243224;28;20043;-86
2022/04/22 19:43:47;;;;;;;13.32;4.13;;;;;;;12.81;59.92;100707.91;10253360;29;20590;-82
2022/04/22 19:48:48;;;;;;;8.60;3.65;;;;;;;12.82;60.37;100701.56;10252504;29;20126;-83
2022/04/22 19:53:52;;;;;;;7.78;2.92;;;;;;;12.15;61.21;100595.44;10252183;29;20130;-83
2022/04/22 19:58:54;;;;;;;;;;;;;;;12.83;60.36;100689.88;10253570;29;20046;-83
2022/04/22 20:03:55;;;;;;;6.53;2.97;;;;;;;12.48;61.24;100687.53;10252389;29;20298;-84
2022/04/22 20:08:56;;;;;;;9.48;3.30;;;;;;;12.14;61.68;100641.69;10252053;29;20470;-83
2022/04/22 20:13:58;;;;;;;5.93;3.05;;;;;;;12.24;63.08;100679.63;10252111;29;20558;-81
2022/04/22 20:18:59;;;;;;;7.82;3.45;;;;;;;12.00;63.64;100678.66;10252783;29;20059;-83
2022/04/22 20:24:00;;;;;;;6.68;2.47;;;;;;;11.69;64.14;100643.88;10252086;28;20415;-83
2022/04/22 20:29:01;;;;;;;3.97;2.15;;;;;;;11.78;63.92;100666.84;10250971;29;20356;-83
2022/04/22 20:34:02;;;;;;;5.90;2.20;;;;;;;11.59;64.37;100675.19;10251185;29;20039;-82
2022/04/22 20:44:21;;;;;;;8.35;4.60;;;;;;;11.19;65.90;100661.69;10252347;29;20054;-82
2022/04/22 20:49:23;;;;;;;12.88;4.57;;;;;;;10.44;65.93;100543.91;10257876;28;20070;-83
2022/04/22 20:54:24;;;;;;;14.00;5.00;;;;;;;11.20;66.14;100654.53;10258933;29;20076;-82
2022/04/22 20:59:26;;;;;;;13.63;4.20;;;;;;;11.09;66.75;100662.81;10259453;29;20126;-83
2022/04/22 21:04:27;;;;;;;10.80;4.22;;;;;;;10.81;67.24;100646.31;10259163;29;20047;-80
2022/04/22 21:09:29;;;;;;;7.97;3.67;;;;;;;10.74;67.60;100646.16;10258872;29;20047;-82
2022/04/22 21:14:31;;;;;;;8.98;3.42;;;;;;;9.72;68.13;100488.59;10258078;29;20039;-82
2022/04/22 21:19:32;;;;;;;4.80;3.28;;;;;;;10.49;68.13;100603.53;10258578;29;20049;-82
2022/04/22 21:24:33;;;;;;;71.82;20.65;;;;;;;9.43;67.63;100414.69;10258426;28;20063;-81
2022/04/22 21:29:34;;;;;;;174.70;43.75;;;;;;;10.00;67.63;100502.44;10257698;29;20142;-81
2022/04/22 21:34:34;;;;;;;60.95;18.60;;;;;;;10.93;67.85;100637.03;10256591;29;20043;-81
2022/04/22 21:39:35;;;;;;;10.85;5.00;;;;;;;10.92;68.08;100632.75;10251716;29;20056;-82
2022/04/22 21:44:36;;;;;;;7.65;4.20;;;;;;;10.52;68.55;100576.66;10217889;29;20404;-81
2022/04/22 21:49:37;;;;;;;5.70;3.10;;;;;;;10.66;69.14;100627.50;10243292;29;20043;-80
2022/04/22 21:54:38;;;;;;;8.82;2.88;;;;;;;10.68;69.62;100638.81;10256616;29;20035;-82
2022/04/22 21:59:39;;;;;;;3.35;2.38;;;;;;;10.45;70.24;100598.72;10256284;28;20051;-82
2022/04/22 22:04:41;;;;;;;8.52;3.08;;;;;;;10.51;70.52;100606.03;10256368;29;20174;-82
2022/04/22 22:09:41;;;;;;;8.77;2.90;;;;;;;10.77;70.21;100642.31;10256254;29;20126;-82
2022/04/22 22:14:42;;;;;;;7.10;3.15;;;;;;;10.64;70.01;100595.78;10257001;29;20490;-82
2022/04/22 22:19:43;;;;;;;7.78;2.47;;;;;;;10.69;69.96;100576.72;10256188;29;20043;-82
2022/04/22 22:24:44;;;;;;;8.38;3.10;;;;;;;10.25;69.74;100521.13;10256480;28;20059;-82
2022/04/22 22:29:46;;;;;;;6.22;3.10;;;;;;;10.63;70.00;100595.97;10255776;29;20047;-81
2022/04/22 22:34:46;;;;;;;4.50;2.85;;;;;;;10.15;69.91;100541.66;10255591;29;20130;-81
2022/04/22 22:39:47;;;;;;;5.63;3.03;;;;;;;10.50;69.76;100583.97;10254845;29;20035;-82
2022/04/22 22:44:48;;;;;;;4.75;3.15;;;;;;;10.68;69.90;100606.94;10237630;29;20047;-81
2022/04/22 22:49:49;;;;;;;4.45;3.13;;;;;;;10.93;69.44;100642.38;10255262;29;20134;-82
2022/04/22 22:54:50;;;;;;;8.68;3.25;;;;;;;10.82;68.92;100626.72;10255278;29;20480;-82
2022/04/22 22:59:50;;;;;;;5.63;3.40;;;;;;;10.60;69.10;100610.38;10253957;29;20094;-82
2022/04/22 23:04:52;;;;;;;7.22;4.50;;;;;;;10.77;68.49;100645.81;10254621;29;20035;-82
2022/04/22 23:09:53;;;;;;;7.90;3.53;;;;;;;10.78;68.83;100638.69;10253241;28;20109;-82
2022/04/22 23:14:54;;;;;;;5.07;3.72;;;;;;;10.51;68.61;100598.91;10254325;29;20067;-82
2022/04/22 23:19:54;;;;;;;7.50;4.32;;;;;;;10.65;68.91;100612.53;10253637;29;20472;-81
2022/04/22 23:24:55;;;;;;;4.82;3.50;;;;;;;10.75;68.97;100623.88;10252992;28;20061;-82
2022/04/22 23:29:56;;;;;;;5.93;3.67;;;;;;;10.78;69.42;100650.13;10253399;29;20533;-82
2022/04/22 23:34:57;;;;;;;5.57;4.03;;;;;;;10.43;69.64;100601.53;10253333;29;20047;-82
2022/04/22 23:39:58;;;;;;;5.38;3.50;;;;;;;9.95;70.70;100531.28;10253157;29;20392;-81
2022/04/22 23:45:03;;;;;;;6.28;3.30;;;;;;;9.14;71.57;100415.84;10253683;29;20047;-81
2022/04/22 23:50:04;;;;;;;5.25;3.20;;;;;;;9.41;71.74;100501.50;10252820;29;20043;-81
2022/04/22 23:55:05;;;;;;;3.97;3.38;;;;;;;9.89;72.12;100578.84;10235214;29;20035;-82
